Time;durP1;ratioP1;P1;durP2;ratioP2;P2;SDS_P1;SDS_P2;PMS_P1;PMS_P2;Temp;Humidity;BMP_temperature;BMP_pressure;BME280_temperature;BME280_humidity;BME280_pressure;Samples;Min_cycle;Max_cycle;Signal;HPM_P1;HPM_P2
2023/01/23 00:01:59;;;;;;;44.88;24.25;;;;;;;0.66;100.00;102863.16;7417359;19;20019;-69
2023/01/23 00:04:28;;;;;;;41.95;22.02;;;;;;;0.67;100.00;102861.47;7400018;19;20018;-69
2023/01/23 00:06:57;;;;;;;40.60;21.75;;;;;;;0.67;100.00;102864.03;7401678;19;20039;-68
2023/01/23 00:09:25;;;;;;;40.90;21.90;;;;;;;0.67;100.00;102871.78;7398916;19;20053;-68
2023/01/23 00:11:54;;;;;;;41.22;23.60;;;;;;;0.66;100.00;102868.34;7400207;19;20028;-69
2023/01/23 00:14:22;;;;;;;42.58;22.83;;;;;;;0.64;100.00;102867.34;7399370;19;20022;-69
2023/01/23 00:16:53;;;;;;;41.10;22.30;;;;;;;0.65;100.00;102871.72;7401432;19;20091;-69
2023/01/23 00:19:22;;;;;;;41.95;22.08;;;;;;;0.64;100.00;102869.94;7397916;19;20484;-69
2023/01/23 00:21:50;;;;;;;41.58;22.10;;;;;;;0.65;100.00;102874.31;7397527;19;20143;-69
2023/01/23 00:24:19;;;;;;;40.45;23.52;;;;;;;0.65;100.00;102861.38;7398551;19;20077;-69
2023/01/23 00:26:53;;;;;;;42.45;21.67;;;;;;;0.65;100.00;102869.13;7398831;19;20104;-69
2023/01/23 00:29:22;;;;;;;42.03;21.63;;;;;;;0.65;100.00;102874.31;7398221;19;20498;-69
2023/01/23 00:31:53;;;;;;;42.17;22.02;;;;;;;0.64;100.00;102875.09;7397765;19;20388;-69
2023/01/23 00:34:21;;;;;;;38.72;22.40;;;;;;;0.64;100.00;102872.53;7395178;19;20419;-69
2023/01/23 00:36:50;;;;;;;36.60;20.88;;;;;;;0.65;100.00;102874.31;7400883;19;20014;-69
2023/01/23 00:39:21;;;;;;;41.58;21.77;;;;;;;0.63;100.00;102868.16;7398048;19;20019;-69
2023/01/23 00:41:51;;;;;;;38.05;22.05;;;;;;;0.62;100.00;102861.19;7397531;19;20419;-69
2023/01/23 00:44:19;;;;;;;42.47;22.35;;;;;;;0.61;100.00;102867.19;7397188;19;20019;-69
2023/01/23 00:46:48;;;;;;;39.80;21.60;;;;;;;0.60;100.00;102868.00;7397858;19;20028;-69
2023/01/23 00:49:19;;;;;;;40.70;22.27;;;;;;;0.61;100.00;102869.78;7397964;19;20023;-69
2023/01/23 00:51:49;;;;;;;41.65;22.02;;;;;;;0.61;100.00;102877.53;7398121;19;20035;-69
2023/01/23 00:54:18;;;;;;;40.67;22.15;;;;;;;0.60;100.00;102870.59;7397722;19;20031;-68
2023/01/23 00:56:47;;;;;;;39.75;22.08;;;;;;;0.47;100.00;102843.22;7399992;19;20021;-68
2023/01/23 00:59:15;;;;;;;37.88;21.50;;;;;;;0.59;100.00;102874.84;7399199;19;20086;-68
2023/01/23 01:01:44;;;;;;;43.35;21.65;;;;;;;0.60;100.00;102881.78;7397742;19;20023;-68
2023/01/23 01:04:12;;;;;;;40.65;21.73;;;;;;;0.60;100.00;102880.91;7397621;19;20039;-69
2023/01/23 01:06:44;;;;;;;44.20;21.60;;;;;;;0.60;100.00;102886.09;7397654;19;20026;-68
2023/01/23 01:09:12;;;;;;;40.25;20.95;;;;;;;0.61;100.00;102893.03;7397616;19;20019;-70
2023/01/23 01:11:41;;;;;;;46.67;23.08;;;;;;;0.61;100.00;102893.03;7397256;19;20375;-69
2023/01/23 01:14:09;;;;;;;43.22;22.70;;;;;;;0.60;100.00;102888.66;7398036;19;20022;-69
2023/01/23 01:16:43;;;;;;;43.63;23.17;;;;;;;0.61;100.00;102899.09;7397174;19;20030;-68
2023/01/23 01:19:12;;;;;;;;;;;;;;;0.62;100.00;102898.28;7399506;19;20486;-68
2023/01/23 01:21:44;;;;;;;47.22;22.88;;;;;;;0.62;100.00;102895.69;7397232;19;19947;-68
2023/01/23 01:24:12;;;;;;;43.22;23.13;;;;;;;0.62;100.00;102895.69;7396508;19;20019;-68
2023/01/23 01:26:41;;;;;;;42.00;22.10;;;;;;;0.64;100.00;102893.19;7397382;19;20018;-69
2023/01/23 01:29:10;;;;;;;42.13;22.67;;;;;;;0.63;100.00;102892.31;7403106;19;20014;-69
2023/01/23 01:31:38;;;;;;;44.00;23.20;;;;;;;0.64;100.00;102890.59;7402497;19;20015;-69
2023/01/23 01:34:07;;;;;;;43.72;22.92;;;;;;;0.64;100.00;102895.78;7399223;19;20035;-69
2023/01/23 01:36:35;;;;;;;43.05;21.95;;;;;;;0.63;100.00;102896.56;7397567;19;20018;-69
2023/01/23 01:39:06;;;;;;;45.60;23.15;;;;;;;0.64;100.00;102900.94;7396226;19;20055;-69
2023/01/23 01:41:35;;;;;;;45.60;24.33;;;;;;;0.63;100.00;102902.66;7396139;19;20018;-68
2023/01/23 01:44:03;;;;;;;48.88;23.85;;;;;;;0.64;100.00;102903.53;7397105;19;20027;-69
2023/01/23 01:46:32;;;;;;;43.05;22.23;;;;;;;0.65;100.00;102907.88;7397934;19;20031;-69
2023/01/23 01:49:09;;;;;;;46.60;23.90;;;;;;;0.64;100.00;102909.59;7397335;19;20019;-67
2023/01/23 01:51:42;;;;;;;46.85;23.38;;;;;;;0.67;100.00;102915.72;7396931;19;20015;-69
2023/01/23 01:54:20;;;;;;;44.22;24.23;;;;;;;0.67;100.00;102919.22;7396142;19;20015;-67
2023/01/23 01:56:54;;;;;;;42.17;23.17;;;;;;;0.66;100.00;102920.00;7396413;19;20023;-67
2023/01/23 01:59:24;;;;;;;40.70;21.90;;;;;;;0.67;100.00;102924.38;7396575;19;20025;-67
2023/01/23 02:02:04;;;;;;;48.90;23.65;;;;;;;0.61;100.00;102912.00;7396649;19;20094;-68
2023/01/23 02:04:35;;;;;;;43.28;21.98;;;;;;;0.69;100.00;102924.44;7395921;19;20015;-68
2023/01/23 02:07:09;;;;;;;48.38;23.60;;;;;;;0.70;100.00;102921.06;7395819;19;20011;-68
2023/01/23 02:09:41;;;;;;;45.92;23.33;;;;;;;0.69;100.00;102922.75;7395960;19;20039;-68
2023/01/23 02:12:10;;;;;;;48.92;23.52;;;;;;;0.71;100.00;102926.31;7396608;19;20039;-68
2023/01/23 02:14:38;;;;;;;42.45;22.50;;;;;;;0.71;100.00;102922.81;7389009;19;20091;-71
2023/01/23 02:17:07;;;;;;;47.80;23.98;;;;;;;0.72;100.00;102933.25;7395878;19;20035;-69
2023/01/23 02:19:46;;;;;;;45.78;23.17;;;;;;;0.72;100.00;102928.09;7395561;19;20018;-69
2023/01/23 02:22:28;;;;;;;46.95;24.33;;;;;;;0.73;100.00;102931.56;7396290;19;20023;-69
2023/01/23 02:25:05;;;;;;;48.72;23.40;;;;;;;0.73;100.00;102934.13;7395180;19;20110;-67
2023/01/23 02:27:36;;;;;;;50.85;24.73;;;;;;;0.73;100.00;102935.00;7395418;19;20074;-71
2023/01/23 02:30:06;;;;;;;48.10;23.85;;;;;;;0.74;100.00;102934.22;7393765;19;20485;-68
2023/01/23 02:32:36;;;;;;;49.08;24.67;;;;;;;0.74;100.00;102931.63;7394890;19;20561;-68
2023/01/23 02:35:13;;;;;;;46.75;25.67;;;;;;;0.74;100.00;102923.88;7393733;19;20014;-68
2023/01/23 02:37:45;;;;;;;48.55;23.90;;;;;;;0.73;100.00;102940.19;7395154;19;20498;-68
2023/01/23 02:40:15;;;;;;;47.63;23.52;;;;;;;0.74;100.00;102934.22;7395100;19;20497;-68
2023/01/23 02:42:49;;;;;;;46.13;23.92;;;;;;;0.76;100.00;102942.94;7394695;19;20541;-68
2023/01/23 02:45:17;;;;;;;51.50;24.50;;;;;;;0.77;100.00;102943.81;7395775;19;20021;-68
2023/01/23 02:47:46;;;;;;;50.33;25.05;;;;;;;0.77;100.00;102952.47;7394803;19;20018;-68
2023/01/23 02:50:14;;;;;;;48.53;24.83;;;;;;;0.76;100.00;102945.53;7393356;19;20022;-68
2023/01/23 02:52:44;;;;;;;52.17;24.75;;;;;;;0.76;100.00;102948.13;7394154;19;20506;-68
2023/01/23 02:55:13;;;;;;;55.20;25.40;;;;;;;0.76;100.00;102950.69;7395079;19;20082;-68
2023/01/23 02:57:41;;;;;;;52.03;25.40;;;;;;;0.78;100.00;102955.94;7396670;19;20018;-68
2023/01/23 03:00:19;;;;;;;51.60;25.58;;;;;;;0.78;100.00;102953.34;7399654;19;20032;-68
2023/01/23 03:02:48;;;;;;;56.60;26.10;;;;;;;0.78;100.00;102959.44;7401733;19;20510;-68
2023/01/23 03:05:17;;;;;;;52.17;25.63;;;;;;;0.78;100.00;102967.19;7402389;19;20041;-68
2023/01/23 03:07:46;;;;;;;55.80;25.33;;;;;;;0.77;100.00;102965.41;7402172;19;20035;-68
2023/01/23 03:10:14;;;;;;;55.58;26.60;;;;;;;0.77;100.00;102970.56;7401914;19;20032;-68
2023/01/23 03:12:44;;;;;;;55.20;26.55;;;;;;;0.78;100.00;102967.19;7401458;19;20082;-67
2023/01/23 03:15:15;;;;;;;55.25;25.85;;;;;;;0.77;100.00;102968.00;7399775;19;20017;-68
2023/01/23 03:17:50;;;;;;;55.67;26.10;;;;;;;0.78;100.00;102966.28;7401975;19;20039;-68
2023/01/23 03:20:22;;;;;;;57.45;26.83;;;;;;;0.78;100.00;102974.94;7401543;19;20022;-68
2023/01/23 03:22:50;;;;;;;59.67;24.73;;;;;;;0.78;100.00;102974.03;7404043;19;20015;-69
2023/01/23 03:25:19;;;;;;;54.47;25.75;;;;;;;0.78;100.00;102968.88;7401045;19;20019;-69
2023/01/23 03:27:47;;;;;;;60.25;27.65;;;;;;;0.78;100.00;102980.13;7402475;19;20455;-68
2023/01/23 03:30:19;;;;;;;56.22;25.90;;;;;;;0.77;100.00;102973.16;7403026;19;20014;-68
2023/01/23 03:32:48;;;;;;;65.00;27.73;;;;;;;0.77;100.00;102977.41;7400545;19;20013;-68
2023/01/23 03:35:19;;;;;;;54.65;25.33;;;;;;;0.77;100.00;102974.84;7401351;19;20019;-68
2023/01/23 03:37:48;;;;;;;59.25;27.67;;;;;;;0.77;100.00;102983.50;7401600;19;20031;-68
2023/01/23 03:42:59;;;;;;;61.92;26.48;;;;;;;0.78;100.00;102989.53;7396100;19;20006;-68
2023/01/23 03:45:30;;;;;;;57.70;27.73;;;;;;;0.78;100.00;102997.28;7401036;19;20110;-68
2023/01/23 03:47:59;;;;;;;63.75;28.27;;;;;;;0.79;100.00;102993.91;7398842;19;20031;-68
2023/01/23 03:50:27;;;;;;;60.90;25.65;;;;;;;0.80;100.00;102999.16;7400667;19;20509;-68
2023/01/23 03:52:56;;;;;;;61.65;27.30;;;;;;;0.81;100.00;103007.81;7400252;19;20026;-69
2023/01/23 03:55:24;;;;;;;59.38;28.58;;;;;;;0.81;100.00;103006.09;7400700;19;20031;-68
2023/01/23 03:57:54;;;;;;;58.80;27.15;;;;;;;0.83;100.00;103005.31;7400395;19;20031;-68
2023/01/23 04:00:22;;;;;;;62.92;26.80;;;;;;;0.83;100.00;103001.00;7400386;19;20035;-69
2023/01/23 04:02:53;;;;;;;73.00;30.80;;;;;;;0.83;100.00;103000.13;7400179;19;20031;-68
2023/01/23 04:05:22;;;;;;;66.63;27.08;;;;;;;0.83;100.00;103003.59;7400848;19;20023;-68
2023/01/23 04:07:50;;;;;;;67.03;28.10;;;;;;;0.83;100.00;103002.72;7400126;19;20070;-68
2023/01/23 04:10:19;;;;;;;61.58;28.35;;;;;;;0.83;100.00;103005.31;7396919;19;20073;-68
2023/01/23 04:12:47;;;;;;;61.90;29.60;;;;;;;0.84;100.00;103012.25;7399425;19;20015;-67
2023/01/23 04:15:17;;;;;;;62.90;26.92;;;;;;;0.83;100.00;102997.56;7397323;19;20007;-68
2023/01/23 04:17:45;;;;;;;66.57;28.83;;;;;;;0.83;100.00;103006.19;7399805;19;20014;-68
2023/01/23 04:20:16;;;;;;;62.88;28.83;;;;;;;0.80;100.00;102999.16;7399453;19;20506;-68
2023/01/23 04:22:45;;;;;;;65.05;27.58;;;;;;;0.83;100.00;103010.47;7399993;19;20023;-68
2023/01/23 04:25:13;;;;;;;66.78;27.48;;;;;;;0.81;100.00;103000.94;7399791;19;20022;-68
2023/01/23 04:27:42;;;;;;;65.13;29.38;;;;;;;0.80;100.00;102996.56;7398975;19;20427;-68
2023/01/23 04:30:12;;;;;;;73.35;30.88;;;;;;;0.79;100.00;102994.78;7399509;19;20039;-68
2023/01/23 04:32:40;;;;;;;67.30;28.23;;;;;;;0.78;100.00;103005.94;7399006;19;20015;-69
2023/01/23 04:35:09;;;;;;;66.88;29.48;;;;;;;0.78;100.00;103012.78;7396573;19;20482;-68
2023/01/23 04:37:40;;;;;;;69.38;30.95;;;;;;;0.79;100.00;103018.03;7398804;19;20388;-68
2023/01/23 04:40:11;;;;;;;69.00;29.33;;;;;;;0.79;100.00;103018.03;7397040;19;20035;-68
2023/01/23 04:42:40;;;;;;;70.68;30.13;;;;;;;0.75;100.00;103016.09;7399035;19;20019;-68
2023/01/23 04:45:10;;;;;;;72.38;29.00;;;;;;;0.80;100.00;103017.25;7396004;19;20027;-69
2023/01/23 04:47:39;;;;;;;71.97;29.40;;;;;;;0.79;100.00;103018.03;7397841;19;20432;-68
2023/01/23 04:50:08;;;;;;;71.00;30.10;;;;;;;0.79;100.00;103014.59;7395908;19;20520;-68
2023/01/23 04:52:37;;;;;;;74.93;30.27;;;;;;;0.78;100.00;103026.63;7398611;19;20037;-68
2023/01/23 04:55:09;;;;;;;70.25;29.08;;;;;;;0.79;100.00;103028.38;7396196;19;20059;-69
2023/01/23 04:57:37;;;;;;;74.15;31.65;;;;;;;0.80;100.00;103029.28;7395792;19;20557;-68
2023/01/23 05:00:07;;;;;;;70.18;28.40;;;;;;;0.81;100.00;103028.50;7398650;19;20033;-68
2023/01/23 05:02:35;;;;;;;69.20;28.67;;;;;;;0.80;100.00;103031.88;7398962;19;20010;-68
2023/01/23 05:05:05;;;;;;;70.75;29.25;;;;;;;0.80;100.00;103030.16;7396367;19;20590;-68
2023/01/23 05:07:33;;;;;;;73.53;29.88;;;;;;;0.81;100.00;103039.69;7398844;19;20026;-68
2023/01/23 05:10:02;;;;;;;71.10;28.33;;;;;;;0.82;100.00;103045.75;7399075;19;20427;-69
2023/01/23 05:12:33;;;;;;;69.43;27.00;;;;;;;0.82;100.00;103050.91;7401325;19;20078;-68
2023/01/23 05:15:02;;;;;;;78.60;29.02;;;;;;;0.81;100.00;103044.00;7396975;19;20013;-68
2023/01/23 05:17:30;;;;;;;81.45;30.55;;;;;;;0.86;100.00;103036.47;7398472;19;20011;-68
2023/01/23 05:19:58;;;;;;;75.65;28.90;;;;;;;0.88;100.00;103032.28;7397299;19;20087;-68
2023/01/23 05:22:27;;;;;;;82.65;30.42;;;;;;;0.88;100.00;103032.28;7397819;19;20017;-68
2023/01/23 05:24:55;;;;;;;75.97;29.77;;;;;;;0.88;100.00;103029.72;7396240;19;20078;-68
2023/01/23 05:27:24;;;;;;;76.10;29.13;;;;;;;0.88;100.00;103028.00;7397510;19;20011;-68
2023/01/23 05:29:55;;;;;;;77.68;29.45;;;;;;;0.89;100.00;103026.31;7395769;19;20106;-67
2023/01/23 05:32:23;;;;;;;71.47;28.92;;;;;;;0.88;100.00;103024.53;7396853;19;20621;-68
2023/01/23 05:34:52;;;;;;;79.03;29.88;;;;;;;0.90;100.00;103020.34;7394525;19;20035;-69
2023/01/23 05:37:24;;;;;;;73.78;29.60;;;;;;;0.89;100.00;103013.41;7397236;19;20018;-70
2023/01/23 05:39:59;;;;;;;75.93;28.90;;;;;;;0.90;100.00;103015.19;7394688;19;20046;-70
2023/01/23 05:42:27;;;;;;;80.47;29.88;;;;;;;0.87;100.00;103023.63;7396167;19;20021;-71
2023/01/23 05:44:58;;;;;;;77.50;29.77;;;;;;;0.89;100.00;103026.31;7394111;19;20477;-70
2023/01/23 05:47:27;;;;;;;80.80;29.40;;;;;;;0.90;100.00;103033.28;7396205;19;20081;-70
2023/01/23 05:49:55;;;;;;;82.85;29.70;;;;;;;0.90;100.00;103048.78;7394482;19;20154;-70
2023/01/23 05:52:24;;;;;;;111.20;43.38;;;;;;;0.87;100.00;103049.47;7395454;19;20541;-71
2023/01/23 05:54:52;;;;;;;87.25;34.85;;;;;;;0.88;100.00;103058.13;7393861;19;20015;-70
2023/01/23 05:57:21;;;;;;;85.53;31.25;;;;;;;0.87;100.00;103064.97;7396080;19;20073;-70
2023/01/23 05:59:49;;;;;;;84.95;30.52;;;;;;;0.87;100.00;103064.97;7396006;19;20494;-69
2023/01/23 06:02:20;;;;;;;79.97;31.10;;;;;;;0.88;100.00;103068.47;7395853;19;20022;-68
2023/01/23 06:04:49;;;;;;;80.70;30.13;;;;;;;0.86;100.00;103070.97;7394789;19;20039;-72
2023/01/23 06:07:19;;;;;;;82.10;30.02;;;;;;;0.88;100.00;103073.66;7394786;19;20022;-68
2023/01/23 06:09:48;;;;;;;77.95;30.83;;;;;;;0.87;100.00;103074.44;7397007;19;20010;-68
2023/01/23 06:12:17;;;;;;;80.70;31.10;;;;;;;0.87;100.00;103067.56;7396140;19;20078;-68
2023/01/23 06:14:45;;;;;;;75.75;31.23;;;;;;;0.87;100.00;103077.91;7392655;19;20010;-69
2023/01/23 06:17:14;;;;;;;81.50;30.73;;;;;;;0.87;100.00;103088.25;7394864;19;20023;-70
2023/01/23 06:19:45;;;;;;;81.80;32.40;;;;;;;0.88;100.00;103083.97;7394915;19;20028;-68
2023/01/23 06:22:14;;;;;;;83.05;32.78;;;;;;;0.88;100.00;103097.78;7394957;19;20082;-70
2023/01/23 06:24:42;;;;;;;87.90;30.48;;;;;;;0.91;100.00;103089.31;7391540;19;20584;-70
2023/01/23 06:27:11;;;;;;;85.05;31.73;;;;;;;0.90;100.00;103090.16;7394317;19;20029;-69
2023/01/23 06:29:39;;;;;;;85.35;31.33;;;;;;;0.91;100.00;103100.56;7395442;19;20025;-68
2023/01/23 06:32:08;;;;;;;87.57;33.03;;;;;;;0.91;100.00;103099.66;7392469;19;20018;-68
2023/01/23 06:34:37;;;;;;;83.82;32.20;;;;;;;0.91;100.00;103100.56;7395322;19;20082;-69
2023/01/23 06:37:08;;;;;;;81.13;30.88;;;;;;;0.92;100.00;103107.50;7395388;19;20015;-69
2023/01/23 06:39:36;;;;;;;90.25;33.78;;;;;;;0.92;100.00;103101.44;7397732;19;20078;-68
2023/01/23 06:42:08;;;;;;;83.85;31.75;;;;;;;0.90;100.00;103098.78;7396653;19;20086;-69
2023/01/23 06:44:37;;;;;;;91.85;32.45;;;;;;;0.89;100.00;103089.22;7394880;19;20018;-69
2023/01/23 06:47:05;;;;;;;84.95;32.53;;;;;;;0.91;100.00;103090.22;7395198;19;20081;-69
2023/01/23 06:49:34;;;;;;;86.25;32.28;;;;;;;0.91;100.00;103097.97;7395853;19;20057;-69
2023/01/23 06:52:02;;;;;;;85.38;32.30;;;;;;;0.91;100.00;103099.66;7395522;19;20029;-69
2023/01/23 06:54:33;;;;;;;91.35;31.75;;;;;;;0.90;100.00;103095.31;7392924;19;20025;-69
2023/01/23 06:57:02;;;;;;;83.40;32.42;;;;;;;0.90;100.00;103101.34;7395084;19;20077;-69
2023/01/23 06:59:31;;;;;;;83.45;31.80;;;;;;;0.91;100.00;103108.31;7394953;19;20015;-69
2023/01/23 07:01:59;;;;;;;83.15;32.40;;;;;;;0.91;100.00;103112.56;7394737;19;20093;-69
2023/01/23 07:04:27;;;;;;;91.75;33.38;;;;;;;0.89;100.00;103112.50;7393897;19;20021;-70
2023/01/23 07:06:56;;;;;;;88.63;32.35;;;;;;;0.90;100.00;103118.56;7396363;19;20022;-69
2023/01/23 07:09:24;;;;;;;83.35;33.38;;;;;;;0.89;100.00;103114.19;7395231;19;20090;-69
2023/01/23 07:11:55;;;;;;;86.40;32.53;;;;;;;0.89;100.00;103109.03;7394358;19;20086;-70
2023/01/23 07:14:25;;;;;;;91.70;35.47;;;;;;;0.87;100.00;103114.09;7392440;19;20031;-69
2023/01/23 07:16:55;;;;;;;91.43;34.13;;;;;;;0.87;100.00;103120.97;7392376;19;20014;-66
2023/01/23 07:19:24;;;;;;;90.75;34.88;;;;;;;0.88;100.00;103118.47;7394147;19;20091;-68
2023/01/23 07:21:52;;;;;;;92.40;34.08;;;;;;;0.88;100.00;103126.22;7394024;19;20030;-68
2023/01/23 07:24:20;;;;;;;85.03;32.33;;;;;;;0.90;100.00;103126.31;7392807;19;20045;-67
2023/01/23 07:26:49;;;;;;;88.07;32.78;;;;;;;0.92;100.00;103122.13;7393852;19;20019;-67
2023/01/23 07:29:20;;;;;;;86.10;31.17;;;;;;;0.91;100.00;103122.91;7393659;19;20014;-67
2023/01/23 07:31:48;;;;;;;85.28;32.42;;;;;;;0.91;100.00;103126.41;7394141;19;20481;-67
2023/01/23 07:34:17;;;;;;;92.57;33.17;;;;;;;0.91;100.00;103129.00;7391367;19;20023;-67
2023/01/23 07:36:45;;;;;;;84.90;32.70;;;;;;;0.94;100.00;103125.69;7393657;19;20090;-67
2023/01/23 07:39:14;;;;;;;89.40;34.53;;;;;;;0.93;100.00;103123.91;7393339;19;20039;-68
2023/01/23 07:41:43;;;;;;;81.43;33.17;;;;;;;0.93;100.00;103116.16;7393274;19;20041;-67
2023/01/23 07:44:18;;;;;;;90.88;32.90;;;;;;;0.95;100.00;103127.47;7395219;19;20025;-67
2023/01/23 07:46:50;;;;;;;89.38;34.42;;;;;;;0.94;100.00;103117.94;7400876;19;20052;-67
2023/01/23 07:49:18;;;;;;;93.30;35.47;;;;;;;0.96;100.00;103124.06;7400967;19;20098;-67
2023/01/23 07:51:47;;;;;;;83.40;32.75;;;;;;;0.97;100.00;103113.84;7400636;19;20036;-68
2023/01/23 07:54:15;;;;;;;80.40;32.53;;;;;;;0.98;100.00;103120.75;7398528;19;20027;-67
2023/01/23 07:56:44;;;;;;;79.78;32.70;;;;;;;1.00;100.00;103117.38;7400725;19;20014;-67
2023/01/23 07:59:16;;;;;;;73.68;32.03;;;;;;;0.97;100.00;103116.41;7399648;19;20441;-68
2023/01/23 08:01:45;;;;;;;73.70;31.83;;;;;;;1.00;100.00;103128.63;7400624;19;20033;-68
2023/01/23 08:04:16;;;;;;;74.30;31.80;;;;;;;1.00;100.00;103131.22;7397956;19;20014;-68
2023/01/23 08:06:45;;;;;;;76.60;31.05;;;;;;;0.99;100.00;103124.25;7400175;19;20023;-69
2023/01/23 08:09:14;;;;;;;68.70;30.58;;;;;;;0.99;100.00;103129.41;7400839;19;20074;-70
2023/01/23 08:11:42;;;;;;;66.22;30.35;;;;;;;1.00;100.00;103136.38;7399633;19;20532;-69
2023/01/23 08:14:10;;;;;;;73.53;31.92;;;;;;;1.01;100.00;103145.00;7396940;19;20073;-69
2023/01/23 08:16:39;;;;;;;73.75;30.63;;;;;;;1.01;100.00;103145.00;7398324;19;20023;-68
2023/01/23 08:19:08;;;;;;;66.15;29.63;;;;;;;1.02;100.00;103146.78;7399880;19;20548;-68
2023/01/23 08:21:39;;;;;;;69.05;31.30;;;;;;;1.04;100.00;103148.66;7399733;19;20496;-68
2023/01/23 08:24:09;;;;;;;66.07;31.08;;;;;;;1.06;100.00;103165.16;7396535;19;20435;-68
2023/01/23 08:26:37;;;;;;;59.92;29.42;;;;;;;1.07;100.00;103161.75;7396250;19;20014;-68
2023/01/23 08:29:06;;;;;;;60.05;27.65;;;;;;;1.08;100.00;103160.94;7398530;19;20031;-68
2023/01/23 08:31:34;;;;;;;58.90;27.65;;;;;;;1.09;100.00;103167.91;7399014;19;20078;-68
2023/01/23 08:34:03;;;;;;;61.65;30.13;;;;;;;1.09;100.00;103173.06;7396675;19;20485;-68
2023/01/23 08:36:31;;;;;;;59.63;28.30;;;;;;;1.11;100.00;103171.47;7396384;19;20427;-68
2023/01/23 08:39:03;;;;;;;54.83;28.38;;;;;;;1.11;100.00;103180.91;7398907;19;20090;-68
2023/01/23 08:41:31;;;;;;;52.50;27.13;;;;;;;1.12;100.00;103187.88;7396943;19;20015;-68
2023/01/23 08:44:00;;;;;;;54.45;28.55;;;;;;;1.12;100.00;103199.09;7396948;19;20078;-68
2023/01/23 08:46:29;;;;;;;59.63;29.77;;;;;;;1.12;100.00;103196.50;7398521;19;20018;-67
2023/01/23 08:48:58;;;;;;;55.17;28.00;;;;;;;1.12;100.00;103199.09;7398701;19;20095;-68
2023/01/23 08:51:27;;;;;;;58.15;29.60;;;;;;;1.12;100.00;103196.50;7398484;19;20018;-68
2023/01/23 08:53:56;;;;;;;57.20;28.88;;;;;;;1.15;100.00;103203.59;7395744;19;20543;-66
2023/01/23 08:56:27;;;;;;;59.28;27.50;;;;;;;1.12;100.00;103199.09;7393134;19;20440;-66
2023/01/23 08:58:55;;;;;;;56.42;28.70;;;;;;;1.16;100.00;103205.34;7396086;19;20039;-67
2023/01/23 09:01:33;;;;;;;59.90;29.42;;;;;;;1.17;100.00;103208.84;7398348;19;20086;-68
2023/01/23 09:04:01;;;;;;;55.72;28.85;;;;;;;1.18;100.00;103216.66;7396118;19;20094;-67
2023/01/23 09:06:29;;;;;;;55.35;27.98;;;;;;;1.20;100.00;103222.84;7397748;19;20014;-68
2023/01/23 09:08:58;;;;;;;57.53;29.42;;;;;;;1.20;100.00;103209.91;7397507;19;20025;-68
2023/01/23 09:11:29;;;;;;;55.90;27.42;;;;;;;1.21;100.00;103215.94;7397283;19;20025;-68
2023/01/23 09:13:57;;;;;;;53.83;28.80;;;;;;;1.20;100.00;103222.84;7395164;19;20014;-68
2023/01/23 09:16:26;;;;;;;51.72;29.13;;;;;;;1.20;100.00;103216.75;7396590;19;20021;-68
2023/01/23 09:18:56;;;;;;;55.33;29.02;;;;;;;1.21;100.00;103229.75;7397298;19;20410;-69
2023/01/23 09:21:25;;;;;;;56.65;28.83;;;;;;;1.22;100.00;103234.13;7397902;19;20090;-68
2023/01/23 09:23:53;;;;;;;52.67;29.15;;;;;;;1.23;100.00;103232.47;7395814;19;20015;-68
2023/01/23 09:26:22;;;;;;;51.45;27.70;;;;;;;1.24;100.00;103231.63;7395090;19;20078;-68
2023/01/23 09:28:53;;;;;;;52.13;27.55;;;;;;;1.25;100.00;103233.41;7397246;19;20150;-68
2023/01/23 09:31:21;;;;;;;53.10;27.88;;;;;;;1.26;100.00;103240.38;7395631;19;20030;-68
2023/01/23 09:33:50;;;;;;;50.08;28.63;;;;;;;1.27;100.00;103244.75;7395846;19;20039;-68
2023/01/23 09:36:18;;;;;;;53.05;29.48;;;;;;;1.27;100.00;103239.56;7395548;19;20090;-69
2023/01/23 09:38:49;;;;;;;53.35;28.25;;;;;;;1.29;100.00;103248.31;7394328;19;20018;-69
2023/01/23 09:41:21;;;;;;;51.88;28.45;;;;;;;1.30;100.00;103243.22;7394472;19;20014;-67
2023/01/23 09:43:58;;;;;;;52.97;29.02;;;;;;;1.31;100.00;103249.28;7396225;19;20018;-68
2023/01/23 09:46:33;;;;;;;53.47;28.23;;;;;;;1.32;100.00;103245.91;7397189;19;20019;-67
2023/01/23 09:49:07;;;;;;;52.28;29.30;;;;;;;1.33;100.00;103244.19;7396172;19;20358;-68
2023/01/23 09:51:48;;;;;;;51.80;27.60;;;;;;;1.35;100.00;103248.66;7395316;19;20029;-67
2023/01/23 09:54:31;;;;;;;52.60;28.73;;;;;;;1.36;100.00;103249.56;7394383;19;20014;-68
2023/01/23 09:57:03;;;;;;;49.20;28.63;;;;;;;1.39;100.00;103250.63;7394606;19;20556;-68
2023/01/23 09:59:38;;;;;;;50.63;28.50;;;;;;;1.39;100.00;103258.38;7397154;19;20025;-68
2023/01/23 10:02:18;;;;;;;50.10;27.10;;;;;;;1.41;100.00;103256.75;7396376;19;20028;-68
2023/01/23 10:04:47;;;;;;;50.95;28.65;;;;;;;1.41;100.00;103256.75;7394264;19;20023;-68
2023/01/23 10:07:47;;;;;;;57.25;29.02;;;;;;;1.41;100.00;103249.00;7393180;19;20019;-68
2023/01/23 10:10:38;;;;;;;53.05;28.48;;;;;;;1.42;100.00;103250.78;7395801;19;20085;-67
2023/01/23 10:13:15;;;;;;;52.25;28.50;;;;;;;1.43;100.00;103249.97;7394548;19;20018;-68
2023/01/23 10:16:09;;;;;;;50.55;26.65;;;;;;;1.46;100.00;103246.69;7393364;19;20082;-68
2023/01/23 10:18:46;;;;;;;52.28;28.33;;;;;;;1.47;100.00;103253.63;7394107;19;20042;-72
2023/01/23 10:21:25;;;;;;;52.05;26.77;;;;;;;1.48;100.00;103254.50;7395935;19;20094;-67
2023/01/23 10:24:05;;;;;;;51.28;27.08;;;;;;;1.49;100.00;103253.72;7393875;19;20102;-67
2023/01/23 10:26:39;;;;;;;51.08;28.42;;;;;;;1.52;100.00;103253.91;7394897;19;20092;-70
2023/01/23 10:29:16;;;;;;;48.92;26.25;;;;;;;1.51;100.00;103249.53;7395728;19;20419;-68
2023/01/23 10:31:51;;;;;;;52.75;27.90;;;;;;;1.53;100.00;103250.50;7395469;19;20500;-67
2023/01/23 10:34:33;;;;;;;54.35;29.60;;;;;;;1.55;100.00;103251.47;7394342;19;20074;-68
2023/01/23 10:37:12;;;;;;;51.03;27.27;;;;;;;1.55;100.00;103244.59;7393614;19;20014;-68
2023/01/23 10:39:49;;;;;;;54.65;27.73;;;;;;;1.59;100.00;103233.63;7395444;19;20098;-68
2023/01/23 10:42:22;;;;;;;49.40;27.83;;;;;;;1.62;100.00;103244.13;7395670;19;20485;-68
2023/01/23 10:44:51;;;;;;;48.05;25.40;;;;;;;1.66;100.00;103242.63;7393949;19;20019;-68
2023/01/23 10:47:29;;;;;;;48.55;27.13;;;;;;;1.70;100.00;103251.44;7396277;19;20489;-68
2023/01/23 10:49:58;;;;;;;46.22;26.73;;;;;;;1.71;100.00;103243.75;7395414;19;20031;-68
2023/01/23 10:52:38;;;;;;;48.95;28.17;;;;;;;1.74;100.00;103249.09;7395025;19;20013;-69
2023/01/23 10:55:26;;;;;;;50.88;26.98;;;;;;;1.76;100.00;103247.47;7394995;19;20037;-69
2023/01/23 10:57:57;;;;;;;49.50;27.52;;;;;;;1.76;100.00;103242.31;7395507;19;20549;-69
2023/01/23 11:00:31;;;;;;;48.30;26.48;;;;;;;1.76;100.00;103250.06;7395567;19;20082;-69
2023/01/23 11:03:26;;;;;;;47.88;26.05;;;;;;;1.78;100.00;103253.66;7395801;19;20090;-69
2023/01/23 11:05:56;;;;;;;48.00;26.65;;;;;;;1.79;100.00;103246.75;7394452;19;20369;-71
2023/01/23 11:08:27;;;;;;;50.20;26.33;;;;;;;1.82;100.00;103246.03;7393575;19;20445;-73
2023/01/23 11:11:13;;;;;;;41.97;23.83;;;;;;;1.85;100.00;103243.63;7392761;19;20033;-66
2023/01/23 11:13:42;;;;;;;45.42;25.17;;;;;;;1.87;100.00;103240.31;7393063;19;20376;-68
2023/01/23 11:16:15;;;;;;;47.35;25.65;;;;;;;1.86;99.94;103232.44;7391967;19;20011;-71
2023/01/23 11:18:55;;;;;;;46.95;26.27;;;;;;;1.90;100.00;103231.81;7395627;19;20028;-67
2023/01/23 11:21:25;;;;;;;45.55;25.23;;;;;;;1.90;100.00;103229.22;7401597;19;20035;-68
2023/01/23 11:24:10;;;;;;;45.03;24.05;;;;;;;1.91;100.00;103226.72;7399070;19;20077;-67
2023/01/23 11:26:39;;;;;;;43.25;23.13;;;;;;;1.92;99.94;103225.00;7399524;19;20037;-68
2023/01/23 11:29:23;;;;;;;45.50;24.35;;;;;;;1.94;100.00;103223.41;7400788;19;20023;-67